Time;durP1;ratioP1;P1;durP2;ratioP2;P2;SDS_P1;SDS_P2;PMS_P1;PMS_P2;Temp;Humidity;BMP_temperature;BMP_pressure;BME280_temperature;BME280_humidity;BME280_pressure;Samples;Min_cycle;Max_cycle;Signal;HPM_P1;HPM_P2
2022/09/30 00:01:06;;;;;;;311.17;136.23;;;7.00;99.90;;;;;;5098073;28;20171;-53
2022/09/30 00:03:31;;;;;;;309.87;135.23;;;6.90;99.90;;;;;;5097616;28;20184;-53
2022/09/30 00:06:03;;;;;;;285.33;125.27;;;7.10;99.90;;;;;;5098022;28;20554;-53
2022/09/30 00:08:29;;;;;;;301.07;129.97;;;;;;;;;;5097482;28;20197;-53
2022/09/30 00:11:07;;;;;;;302.57;132.07;;;7.00;99.90;;;;;;5094137;28;20190;-53
2022/09/30 00:13:36;;;;;;;294.37;128.17;;;7.00;99.90;;;;;;5089307;28;20185;-53
2022/09/30 00:16:02;;;;;;;291.03;127.90;;;;;;;;;;5097280;28;20206;-53
2022/09/30 00:18:28;;;;;;;300.67;131.97;;;6.70;99.90;;;;;;5097983;28;20563;-53
2022/09/30 00:20:54;;;;;;;294.63;128.73;;;;;;;;;;5097535;28;20194;-53
2022/09/30 00:23:21;;;;;;;298.43;130.47;;;6.90;99.90;;;;;;5097705;28;20174;-53
2022/09/30 00:25:47;;;;;;;293.77;128.60;;;6.70;99.90;;;;;;5097718;28;20217;-53
2022/09/30 00:28:13;;;;;;;300.87;131.70;;;6.90;99.90;;;;;;5097593;28;20198;-53
2022/09/30 00:30:39;;;;;;;277.87;123.37;;;;;;;;;;5097963;28;20174;-53
2022/09/30 00:33:04;;;;;;;305.63;132.60;;;6.70;99.90;;;;;;5097610;28;20233;-53
2022/09/30 00:35:30;;;;;;;302.57;132.60;;;;;;;;;;5096313;28;20283;-53
2022/09/30 00:37:56;;;;;;;279.50;124.63;;;6.80;99.90;;;;;;5097314;28;20190;-53
2022/09/30 00:40:21;;;;;;;299.73;131.00;;;6.70;99.90;;;;;;5096200;28;20189;-53
2022/09/30 00:42:48;;;;;;;292.87;127.53;;;;;;;;;;5097207;28;20174;-53
2022/09/30 00:45:16;;;;;;;289.53;125.97;;;;;;;;;;5096666;28;20217;-53
2022/09/30 00:47:53;;;;;;;298.90;129.40;;;6.50;99.90;;;;;;5089515;28;20244;-52
2022/09/30 00:50:37;;;;;;;296.17;127.57;;;6.60;99.90;;;;;;5086332;28;20170;-53
2022/09/30 00:53:15;;;;;;;296.20;126.97;;;6.60;99.90;;;;;;5097346;28;20178;-53
2022/09/30 00:56:05;;;;;;;303.77;132.17;;;6.60;99.90;;;;;;5100723;28;20701;-52
2022/09/30 00:59:00;;;;;;;274.90;120.20;;;6.70;99.90;;;;;;5090587;28;20311;-53
2022/09/30 01:01:26;;;;;;;271.27;119.53;;;;;;;;;;5091503;28;20190;-53
2022/09/30 01:04:15;;;;;;;272.67;119.40;;;6.70;99.90;;;;;;5100795;28;20180;-53
2022/09/30 01:06:41;;;;;;;299.50;129.37;;;6.50;99.90;;;;;;5092940;28;20202;-53
2022/09/30 01:09:07;;;;;;;297.67;127.80;;;6.60;99.90;;;;;;5100984;28;20258;-53
2022/09/30 01:11:33;;;;;;;296.60;127.80;;;;;;;;;;5100831;28;20256;-53
2022/09/30 01:14:03;;;;;;;299.87;128.50;;;4.00;99.90;;;;;;5090258;28;20206;-53
2022/09/30 01:16:37;;;;;;;303.37;131.03;;;6.60;99.90;;;;;;5080512;28;20228;-52
2022/09/30 01:19:44;;;;;;;297.17;127.60;;;6.60;99.90;;;;;;5080838;28;20269;-53
2022/09/30 01:22:27;;;;;;;278.90;121.73;;;6.50;99.90;;;;;;5097800;28;20162;-53
2022/09/30 01:25:20;;;;;;;316.77;136.17;;;6.40;99.90;;;;;;5093810;28;20376;-53
2022/09/30 01:28:10;;;;;;;296.50;128.80;;;6.40;99.90;;;;;;5103498;28;20213;-53
2022/09/30 01:31:02;;;;;;;273.77;122.53;;;6.30;99.90;;;;;;5100439;28;20307;-53
2022/09/30 01:33:43;;;;;;;285.27;126.27;;;6.30;99.90;;;;;;5095963;28;20182;-53
2022/09/30 01:36:30;;;;;;;266.07;118.93;;;6.30;99.90;;;;;;5093161;28;20403;-53
2022/09/30 01:39:13;;;;;;;289.00;127.00;;;6.20;99.90;;;;;;5100081;28;20185;-53
2022/09/30 01:41:54;;;;;;;290.67;127.80;;;6.20;99.90;;;;;;5100372;28;20174;-53
2022/09/30 01:44:30;;;;;;;289.73;125.93;;;6.30;99.90;;;;;;5099300;28;20230;-53
2022/09/30 01:47:30;;;;;;;300.20;130.83;;;6.20;99.90;;;;;;5097633;28;20202;-53
2022/09/30 01:50:04;;;;;;;286.10;125.40;;;6.10;99.90;;;;;;5094671;28;20694;-53
2022/09/30 01:53:09;;;;;;;275.50;122.23;;;6.10;99.90;;;;;;5088713;28;20558;-53
2022/09/30 01:55:51;;;;;;;299.47;130.70;;;6.10;99.90;;;;;;5067211;28;20254;-53
2022/09/30 01:58:32;;;;;;;283.30;123.27;;;6.10;99.90;;;;;;5082011;28;20692;-53
2022/09/30 02:01:01;;;;;;;283.67;124.07;;;6.10;99.90;;;;;;5079811;28;20304;-53
2022/09/30 02:03:33;;;;;;;301.63;130.77;;;6.10;99.90;;;;;;5086290;28;20421;-53
2022/09/30 02:06:04;;;;;;;292.30;126.90;;;6.10;99.90;;;;;;5099398;28;20195;-53
2022/09/30 02:08:56;;;;;;;293.40;127.60;;;6.00;99.90;;;;;;5099911;28;20200;-53
2022/09/30 02:11:28;;;;;;;297.33;128.77;;;6.00;99.90;;;;;;5099561;28;20170;-53
2022/09/30 02:14:13;;;;;;;300.60;132.27;;;5.90;99.90;;;;;;5099880;28;20151;-53
2022/09/30 02:16:47;;;;;;;301.80;130.93;;;5.90;99.90;;;;;;5099423;28;20228;-53
2022/09/30 02:19:35;;;;;;;280.00;121.10;;;5.90;99.90;;;;;;5083284;28;20261;-53
2022/09/30 02:22:29;;;;;;;295.33;128.90;;;5.90;99.90;;;;;;5099413;28;20181;-53
2022/09/30 02:24:59;;;;;;;284.90;124.57;;;5.90;99.90;;;;;;5099535;28;20708;-53
2022/09/30 02:27:30;;;;;;;288.23;125.80;;;8.00;99.90;;;;;;5099218;28;20229;-53
2022/09/30 02:29:58;;;;;;;291.70;127.83;;;5.80;99.90;;;;;;5099694;28;20241;-53
2022/09/30 02:32:34;;;;;;;283.97;123.63;;;5.90;99.90;;;;;;5099623;28;20242;-53
2022/09/30 02:35:07;;;;;;;283.50;123.63;;;5.70;99.90;;;;;;5099016;28;20186;-53
2022/09/30 02:37:39;;;;;;;276.57;123.23;;;5.60;99.90;;;;;;5098614;28;20689;-52
2022/09/30 02:40:09;;;;;;;287.80;124.90;;;5.50;99.90;;;;;;5098542;28;20235;-53
2022/09/30 02:42:35;;;;;;;268.40;117.67;;;;;;;;;;5099467;28;20432;-53
2022/09/30 02:45:07;;;;;;;270.13;118.30;;;5.60;99.90;;;;;;5099024;28;20224;-52
2022/09/30 02:47:49;;;;;;;296.53;130.70;;;5.00;99.90;;;;;;5098889;28;20289;-52
2022/09/30 02:50:51;;;;;;;285.47;123.57;;;5.60;99.90;;;;;;5085075;28;20211;-53
2022/09/30 02:53:41;;;;;;;278.13;121.43;;;3.30;99.90;;;;;;5099031;28;20180;-53
2022/09/30 02:56:28;;;;;;;287.73;124.77;;;5.40;99.90;;;;;;5104339;28;20199;-53
2022/09/30 02:58:56;;;;;;;288.30;125.00;;;5.40;99.90;;;;;;5104005;28;20182;-52
2022/09/30 03:01:22;;;;;;;285.77;123.93;;;5.40;99.90;;;;;;5096854;28;20198;-53
2022/09/30 03:03:57;;;;;;;297.57;128.83;;;5.40;99.90;;;;;;5098373;28;20276;-53
2022/09/30 03:06:23;;;;;;;274.03;118.90;;;5.40;99.90;;;;;;5099029;28;20495;-53
2022/09/30 03:08:51;;;;;;;277.37;120.97;;;5.30;99.90;;;;;;5098989;28;20194;-53
2022/09/30 03:11:20;;;;;;;287.30;123.93;;;5.40;99.90;;;;;;5098715;28;20177;-53
2022/09/30 03:14:04;;;;;;;306.00;132.93;;;5.30;99.90;;;;;;5098601;28;20178;-53
2022/09/30 03:16:54;;;;;;;276.37;120.53;;;5.40;99.90;;;;;;5078476;28;20650;-53
2022/09/30 03:19:37;;;;;;;296.43;130.00;;;5.60;99.90;;;;;;5096564;28;20174;-53
2022/09/30 03:22:46;;;;;;;288.53;125.03;;;5.40;99.90;;;;;;5098830;28;20420;-53
2022/09/30 03:25:18;;;;;;;289.73;125.87;;;5.30;99.90;;;;;;5015380;28;20197;-53
2022/09/30 03:28:15;;;;;;;283.40;123.70;;;5.40;99.90;;;;;;5083580;28;20307;-53
2022/09/30 03:30:50;;;;;;;286.60;124.00;;;5.30;99.90;;;;;;5060121;28;20275;-53
2022/09/30 03:33:29;;;;;;;288.67;125.67;;;5.50;99.90;;;;;;5097684;28;20166;-53
2022/09/30 03:36:06;;;;;;;285.40;122.67;;;5.40;99.90;;;;;;5098363;28;20201;-53
2022/09/30 03:38:32;;;;;;;291.80;125.73;;;;;;;;;;5091991;28;20700;-53
2022/09/30 03:41:15;;;;;;;299.93;130.10;;;5.50;99.90;;;;;;5077961;28;20180;-53
2022/09/30 03:43:53;;;;;;;285.57;122.70;;;5.30;99.90;;;;;;5089570;28;20182;-53
2022/09/30 03:46:31;;;;;;;297.27;128.83;;;5.30;99.90;;;;;;5097602;28;20555;-52
2022/09/30 03:49:03;;;;;;;286.43;124.50;;;5.30;99.90;;;;;;5098121;28;20223;-53
2022/09/30 03:51:30;;;;;;;286.17;124.40;;;5.20;99.90;;;;;;5098273;28;20162;-53
2022/09/30 03:53:57;;;;;;;301.03;131.47;;;5.20;99.90;;;;;;5091919;28;20296;-53
2022/09/30 03:56:28;;;;;;;293.83;128.13;;;5.10;99.90;;;;;;5082481;28;20203;-53
2022/09/30 03:58:55;;;;;;;274.60;119.47;;;;;;;;;;5086249;28;20210;-53
2022/09/30 04:01:22;;;;;;;281.20;121.80;;;;;;;;;;5077881;28;20248;-52
2022/09/30 04:03:51;;;;;;;298.77;129.00;;;5.10;99.90;;;;;;5077439;28;20191;-53
2022/09/30 04:06:19;;;;;;;289.30;126.10;;;5.00;99.90;;;;;;5081630;28;20202;-53
2022/09/30 04:08:44;;;;;;;278.87;121.13;;;;;;;;;;5081152;28;20660;-53
2022/09/30 04:11:11;;;;;;;289.63;125.57;;;5.00;99.90;;;;;;5098021;28;20175;-53
2022/09/30 04:13:37;;;;;;;280.90;120.73;;;5.00;99.90;;;;;;5097766;28;20167;-53
2022/09/30 04:16:09;;;;;;;299.00;130.00;;;5.10;99.90;;;;;;5102269;28;20206;-53
2022/09/30 04:18:37;;;;;;;264.97;116.67;;;5.20;99.90;;;;;;5097942;28;20161;-53
2022/09/30 04:21:07;;;;;;;282.83;120.67;;;5.10;99.90;;;;;;5092403;28;20187;-53
2022/09/30 04:23:39;;;;;;;295.17;129.60;;;5.00;99.90;;;;;;5080385;28;20178;-52
2022/09/30 04:26:08;;;;;;;284.50;123.80;;;4.90;99.90;;;;;;5093015;28;20230;-52
2022/09/30 04:28:34;;;;;;;274.30;120.93;;;5.00;99.90;;;;;;5096974;28;20206;-53
2022/09/30 04:31:01;;;;;;;293.03;128.87;;;4.80;99.90;;;;;;5096856;28;20178;-53
2022/09/30 04:33:27;;;;;;;284.53;123.23;;;;;;;;;;5096004;28;20174;-52
2022/09/30 04:35:54;;;;;;;295.60;127.03;;;5.00;99.90;;;;;;5097152;28;20194;-53
2022/09/30 04:38:20;;;;;;;302.63;132.03;;;;;;;;;;5084981;28;20277;-53
2022/09/30 04:40:48;;;;;;;277.37;120.67;;;5.00;99.90;;;;;;5090007;28;20206;-53
2022/09/30 04:43:15;;;;;;;286.60;124.67;;;;;;;;;;5097511;28;20178;-52
2022/09/30 04:45:43;;;;;;;298.40;131.33;;;5.00;99.90;;;;;;5104073;28;20302;-52
2022/09/30 04:48:09;;;;;;;295.33;127.63;;;5.20;99.90;;;;;;5079793;28;20229;-52
2022/09/30 04:50:34;;;;;;;289.97;127.30;;;5.20;99.90;;;;;;5076993;28;20171;-52
2022/09/30 04:53:02;;;;;;;285.90;124.00;;;;;;;;;;5091611;28;20669;-52
2022/09/30 04:55:28;;;;;;;289.87;126.17;;;;;;;;;;5097778;28;20189;-52
2022/09/30 04:57:54;;;;;;;257.87;114.00;;;;;;;;;;5097656;28;20367;-52
2022/09/30 05:00:20;;;;;;;290.40;125.73;;;5.20;99.90;;;;;;5096587;28;20210;-52
2022/09/30 05:02:46;;;;;;;288.30;126.83;;;5.30;99.90;;;;;;5094423;28;20182;-52
2022/09/30 05:05:12;;;;;;;293.87;127.50;;;5.30;99.90;;;;;;5096793;28;20222;-52
2022/09/30 05:07:38;;;;;;;282.90;123.13;;;;;;;;;;5078275;28;20187;-52
2022/09/30 05:10:04;;;;;;;278.63;123.30;;;5.10;99.90;;;;;;5111713;28;20203;-52
2022/09/30 05:12:30;;;;;;;295.77;128.50;;;5.20;99.90;;;;;;5097008;28;20175;-52
2022/09/30 05:14:56;;;;;;;299.13;128.87;;;5.70;99.90;;;;;;5096849;28;20217;-52
2022/09/30 05:17:21;;;;;;;284.60;124.37;;;5.70;99.90;;;;;;5096731;28;20555;-52
2022/09/30 05:19:47;;;;;;;290.57;127.00;;;;;;;;;;5088633;28;20562;-52
2022/09/30 05:22:14;;;;;;;266.17;118.83;;;5.50;99.90;;;;;;5091161;28;20416;-53
2022/09/30 05:24:40;;;;;;;296.10;130.03;;;;;;;;;;5092002;28;20231;-53
2022/09/30 05:27:06;;;;;;;292.13;128.93;;;;;;;;;;5091219;28;20198;-53
2022/09/30 05:29:32;;;;;;;296.40;130.33;;;;;;;;;;5089607;28;20182;-53
2022/09/30 05:31:58;;;;;;;270.03;119.90;;;5.60;99.90;;;;;;5085707;28;20170;-53
2022/09/30 05:34:23;;;;;;;291.00;127.97;;;5.70;99.90;;;;;;5088819;28;20181;-53
2022/09/30 05:36:49;;;;;;;293.30;128.97;;;5.60;99.90;;;;;;5088797;28;20159;-52
2022/09/30 05:39:15;;;;;;;295.90;129.63;;;;;;;;;;5088485;28;20214;-53
2022/09/30 05:41:41;;;;;;;291.03;125.90;;;;;;;;;;5089306;28;20181;-52
2022/09/30 05:44:08;;;;;;;297.70;128.67;;;;;;;;;;5092154;28;20174;-53
2022/09/30 05:46:34;;;;;;;283.63;126.27;;;5.60;99.90;;;;;;5092870;28;20181;-53
2022/09/30 05:48:59;;;;;;;288.80;127.77;;;5.70;99.90;;;;;;5093246;28;20198;-52
2022/09/30 05:51:25;;;;;;;295.73;130.20;;;;;;;;;;5092541;28;20273;-52
2022/09/30 05:53:51;;;;;;;275.37;123.17;;;;;;;;;;5091709;28;20257;-53
2022/09/30 05:56:17;;;;;;;288.00;125.07;;;5.80;99.90;;;;;;5091803;28;20195;-53
2022/09/30 05:58:43;;;;;;;282.40;123.97;;;;;;;;;;5090397;28;20188;-53
2022/09/30 06:01:11;;;;;;;291.40;127.40;;;5.70;99.90;;;;;;5091094;28;20542;-53
2022/09/30 06:03:37;;;;;;;284.60;126.00;;;5.60;99.90;;;;;;5091672;28;20177;-52
2022/09/30 06:06:06;;;;;;;343.40;157.03;;;5.90;99.90;;;;;;5090184;28;20558;-52
2022/09/30 06:08:32;;;;;;;302.10;131.83;;;;;;;;;;5090001;28;20245;-52
2022/09/30 06:10:58;;;;;;;275.67;122.27;;;;;;;;;;5091568;28;20248;-52
2022/09/30 06:13:24;;;;;;;277.17;122.07;;;;;;;;;;5091859;28;20182;-53
2022/09/30 06:15:58;;;;;;;291.87;127.40;;;6.10;99.90;;;;;;5089778;28;20303;-53
2022/09/30 06:18:24;;;;;;;292.93;128.83;;;;;;;;;;5091246;28;20158;-54
2022/09/30 06:20:51;;;;;;;290.40;128.10;;;;;;;;;;5091299;28;20179;-53
2022/09/30 06:23:16;;;;;;;297.17;129.93;;;6.30;99.90;;;;;;5091328;28;20167;-53
2022/09/30 06:25:43;;;;;;;292.07;127.43;;;;;;;;;;5091331;28;20281;-53
2022/09/30 06:28:09;;;;;;;271.57;120.23;;;;;;;;;;5091261;28;20692;-52
2022/09/30 06:30:35;;;;;;;271.40;121.00;;;;;;;;;;5091068;28;20467;-52
2022/09/30 06:33:01;;;;;;;291.20;128.10;;;6.30;99.90;;;;;;5091149;28;20249;-52
2022/09/30 06:35:27;;;;;;;296.40;126.77;;;6.30;99.90;;;;;;5091191;28;20195;-53
2022/09/30 06:37:53;;;;;;;303.83;130.07;;;6.50;99.90;;;;;;5090891;28;20178;-52
2022/09/30 06:40:22;;;;;;;289.97;125.07;;;6.40;99.90;;;;;;5090533;28;20265;-52
2022/09/30 06:42:48;;;;;;;297.17;128.70;;;;;;;;;;5091216;28;20166;-52
2022/09/30 06:45:15;;;;;;;317.13;137.00;;;6.60;99.90;;;;;;5090338;28;20205;-52
2022/09/30 06:47:41;;;;;;;294.03;126.20;;;;;;;;;;5091011;28;20338;-52
2022/09/30 06:50:06;;;;;;;290.53;124.30;;;6.60;99.90;;;;;;5090673;28;20166;-53
2022/09/30 06:52:32;;;;;;;287.47;122.97;;;;;;;;;;5091128;28;20178;-52
2022/09/30 06:54:58;;;;;;;279.23;121.73;;;;;;;;;;5090000;28;20269;-51
2022/09/30 06:57:26;;;;;;;303.40;128.73;;;7.00;99.90;;;;;;5090596;28;20252;-52
2022/09/30 06:59:53;;;;;;;312.40;131.07;;;7.30;99.90;;;;;;5090486;28;20254;-52
2022/09/30 07:02:19;;;;;;;282.83;120.10;;;;;;;;;;5090557;28;20419;-52
2022/09/30 07:04:45;;;;;;;272.67;118.40;;;;;;;;;;5090487;28;20195;-52
2022/09/30 07:07:11;;;;;;;306.40;129.53;;;;;;;;;;5090686;28;20560;-52
2022/09/30 07:09:37;;;;;;;309.70;132.37;;;7.70;99.90;;;;;;5089858;28;20166;-51
2022/09/30 07:12:05;;;;;;;307.00;130.73;;;7.90;99.90;;;;;;5097551;28;20671;-51
2022/09/30 07:14:31;;;;;;;315.87;136.43;;;;;;;;;;5099952;28;20194;-51
2022/09/30 07:16:57;;;;;;;302.53;127.93;;;8.20;99.90;;;;;;5090186;28;20189;-52
2022/09/30 07:19:23;;;;;;;310.57;131.73;;;;;;;;;;5090092;28;20181;-52
2022/09/30 07:21:49;;;;;;;316.83;132.20;;;8.30;99.90;;;;;;5090027;28;20511;-52
2022/09/30 07:24:17;;;;;;;320.13;133.30;;;8.30;99.90;;;;;;5090512;28;20579;-52
2022/09/30 07:26:44;;;;;;;297.47;126.10;;;8.40;99.90;;;;;;5089933;28;20529;-52
2022/09/30 07:29:11;;;;;;;333.70;141.27;;;8.30;99.90;;;;;;5090199;28;20182;-52
2022/09/30 07:31:37;;;;;;;311.83;129.80;;;;;;;;;;5089632;28;20202;-52
2022/09/30 07:34:07;;;;;;;312.00;131.33;;;8.50;99.90;;;;;;5090020;28;20178;-52
2022/09/30 07:36:35;;;;;;;297.80;129.53;;;8.60;99.90;;;;;;5089894;28;20163;-52
2022/09/30 07:39:07;;;;;;;313.07;134.20;;;8.60;99.90;;;;;;5089910;28;20202;-52
2022/09/30 07:41:34;;;;;;;298.77;127.73;;;8.90;99.90;;;;;;5089797;28;20699;-52
2022/09/30 07:44:01;;;;;;;311.00;130.60;;;8.90;99.90;;;;;;5088840;28;20715;-52
2022/09/30 07:46:29;;;;;;;294.53;127.27;;;8.80;99.90;;;;;;5089520;28;20199;-52
2022/09/30 07:48:59;;;;;;;311.43;134.83;;;8.90;99.90;;;;;;5089576;28;20202;-52
2022/09/30 07:51:36;;;;;;;314.63;133.30;;;9.00;99.90;;;;;;5089966;28;20174;-52
2022/09/30 07:54:08;;;;;;;320.03;137.73;;;9.20;99.90;;;;;;5089144;28;20177;-52
2022/09/30 07:56:37;;;;;;;337.27;147.77;;;9.00;99.90;;;;;;5081705;28;20307;-54
2022/09/30 07:59:03;;;;;;;370.80;160.73;;;;;;;;;;5068166;28;20768;-54
2022/09/30 08:01:34;;;;;;;349.37;152.47;;;9.10;99.90;;;;;;5061696;28;20243;-54
2022/09/30 08:04:02;;;;;;;353.23;155.90;;;9.20;99.90;;;;;;5043228;28;20186;-54
2022/09/30 08:06:29;;;;;;;375.20;164.37;;;9.10;99.90;;;;;;5065707;28;20202;-54
2022/09/30 08:08:56;;;;;;;381.80;165.93;;;9.30;99.90;;;;;;5067474;28;20254;-54
2022/09/30 08:11:22;;;;;;;362.80;159.03;;;9.40;99.90;;;;;;5068238;28;21382;-54
2022/09/30 08:13:55;;;;;;;345.23;150.50;;;9.40;99.90;;;;;;5061779;28;20192;-54
2022/09/30 08:16:22;;;;;;;399.83;159.07;;;9.70;99.90;;;;;;5059436;28;20217;-55
2022/09/30 08:18:48;;;;;;;345.40;142.27;;;9.70;99.90;;;;;;5065957;28;20186;-54
2022/09/30 08:21:14;;;;;;;347.80;142.70;;;;;;;;;;5070956;28;20235;-55
2022/09/30 08:23:40;;;;;;;365.50;156.80;;;9.80;99.90;;;;;;5065892;28;20186;-54
2022/09/30 08:26:08;;;;;;;335.90;145.57;;;9.90;99.90;;;;;;5072553;28;20301;-56
2022/09/30 08:28:34;;;;;;;348.23;150.43;;;;;;;;;;5060834;28;20219;-55
2022/09/30 08:31:12;;;;;;;370.33;159.30;;;9.10;99.90;;;;;;5067676;28;20178;-55
2022/09/30 08:33:38;;;;;;;345.20;148.90;;;;;;;;;;5065746;28;20201;-54
2022/09/30 08:36:07;;;;;;;413.10;184.40;;;10.30;99.90;;;;;;5065348;28;20244;-54
2022/09/30 08:38:32;;;;;;;361.47;158.10;;;10.60;99.90;;;;;;5067316;28;20213;-55
2022/09/30 08:41:13;;;;;;;342.17;151.27;;;10.50;99.90;;;;;;5071499;28;20187;-55
2022/09/30 08:44:09;;;;;;;409.03;178.97;;;10.60;99.90;;;;;;5066227;28;20374;-54
2022/09/30 08:46:48;;;;;;;426.10;185.77;;;10.60;99.90;;;;;;5048955;28;20183;-54
2022/09/30 08:49:14;;;;;;;388.93;173.97;;;;;;;;;;5057365;28;20701;-54
2022/09/30 08:51:47;;;;;;;401.17;177.20;;;10.80;99.90;;;;;;5051268;28;20182;-54
2022/09/30 08:54:19;;;;;;;349.17;152.13;;;10.90;99.90;;;;;;5067615;28;20285;-54
2022/09/30 08:56:45;;;;;;;349.43;150.47;;;11.00;99.90;;;;;;5075797;28;20702;-55
2022/09/30 08:59:11;;;;;;;395.30;174.23;;;;;;;;;;5063167;28;20190;-55
2022/09/30 09:01:41;;;;;;;347.93;155.57;;;11.20;99.90;;;;;;5068832;28;20194;-55
2022/09/30 09:04:07;;;;;;;364.07;166.30;;;;;;;;;;5073185;28;20186;-55
2022/09/30 09:06:40;;;;;;;335.20;152.13;;;11.20;99.90;;;;;;5070472;28;20545;-54
2022/09/30 09:09:05;;;;;;;427.37;197.13;;;;;;;;;;5051296;28;20773;-55
2022/09/30 09:11:49;;;;;;;358.57;161.57;;;11.40;99.90;;;;;;5054966;28;20190;-55
2022/09/30 09:14:34;;;;;;;409.13;185.23;;;11.40;99.90;;;;;;5053628;28;20698;-55
2022/09/30 09:17:37;;;;;;;420.93;193.17;;;11.50;99.90;;;;;;5058292;28;20195;-54
2022/09/30 09:20:14;;;;;;;368.83;167.97;;;11.80;99.90;;;;;;5060553;28;20577;-54
2022/09/30 09:22:42;;;;;;;404.77;181.47;;;12.30;99.90;;;;;;5063344;28;20230;-54
2022/09/30 09:25:13;;;;;;;376.43;173.00;;;12.40;99.90;;;;;;5071352;28;20208;-54
2022/09/30 09:27:58;;;;;;;354.87;159.77;;;12.20;99.90;;;;;;5071414;28;20570;-54
2022/09/30 09:30:27;;;;;;;385.10;175.07;;;12.10;99.90;;;;;;5056976;28;20205;-54
2022/09/30 09:32:56;;;;;;;379.53;173.43;;;12.20;99.90;;;;;;5044259;28;20171;-54
2022/09/30 09:35:34;;;;;;;375.10;172.80;;;12.40;99.90;;;;;;5062906;28;20221;-55
2022/09/30 09:38:25;;;;;;;388.90;174.53;;;12.60;99.90;;;;;;5056950;28;20263;-54
2022/09/30 09:41:39;;;;;;;425.83;194.83;;;12.80;99.90;;;;;;5031181;28;20245;-55
2022/09/30 09:44:26;;;;;;;430.03;196.53;;;12.80;99.90;;;;;;5057250;28;20666;-55
2022/09/30 09:47:04;;;;;;;439.33;203.60;;;12.90;1.00;;;;;;5049852;28;20182;-53
2022/09/30 09:49:37;;;;;;;417.77;193.37;;;13.00;1.00;;;;;;5072922;28;20665;-54
2022/09/30 09:52:04;;;;;;;355.53;163.43;;;;;;;;;;5063886;28;20179;-54
2022/09/30 09:54:35;;;;;;;422.80;202.73;;;13.50;1.00;;;;;;5052257;28;20254;-54
2022/09/30 09:57:08;;;;;;;370.57;175.23;;;13.70;1.00;;;;;;5061705;28;20273;-54
2022/09/30 09:59:35;;;;;;;418.80;195.43;;;;;;;;;;5059268;28;20211;-53
2022/09/30 10:02:01;;;;;;;391.80;184.83;;;;;;;;;;5057406;28;20197;-53
2022/09/30 10:04:31;;;;;;;389.63;182.60;;;13.90;99.90;;;;;;5055878;28;20287;-54
2022/09/30 10:07:11;;;;;;;409.33;192.13;;;14.00;1.00;;;;;;5049779;28;20217;-53
2022/09/30 10:09:39;;;;;;;449.77;217.30;;;14.10;89.90;;;;;;5054222;28;20898;-53
2022/09/30 10:12:05;;;;;;;413.67;199.13;;;;;;;;;;5058415;28;20217;-53
2022/09/30 10:15:01;;;;;;;387.60;185.13;;;14.50;1.00;;;;;;5057072;28;20731;-53
2022/09/30 10:17:33;;;;;;;362.13;169.83;;;14.60;1.00;;;;;;5063988;28;20647;-53
2022/09/30 10:20:06;;;;;;;360.87;170.37;;;14.70;1.00;;;;;;5060022;28;20578;-54
2022/09/30 10:22:33;;;;;;;409.37;191.63;;;14.80;99.90;;;;;;5062885;28;20195;-56
2022/09/30 10:25:20;;;;;;;391.80;182.57;;;14.80;42.00;;;;;;5059297;28;20594;-55
2022/09/30 10:27:58;;;;;;;383.60;184.70;;;14.70;1.00;;;;;;5045803;28;20218;-55
2022/09/30 10:30:52;;;;;;;417.30;198.83;;;14.80;1.00;;;;;;5060481;28;20187;-56
2022/09/30 10:33:19;;;;;;;383.63;185.37;;;14.80;1.00;;;;;;5051181;28;20269;-55
2022/09/30 10:36:10;;;;;;;438.17;209.27;;;14.90;1.00;;;;;;5059028;28;20234;-56
2022/09/30 10:41:09;;;;;;;373.37;177.67;;;;;;;;;;5071858;27;20567;-55
2022/09/30 10:43:50;;;;;;;434.17;204.63;;;14.90;1.00;;;;;;5062455;28;20243;-55
2022/09/30 10:46:29;;;;;;;385.70;185.83;;;15.10;1.00;;;;;;5055695;28;20754;-55
2022/09/30 10:48:56;;;;;;;467.97;228.50;;;15.30;99.90;;;;;;5057012;28;20170;-55
2022/09/30 10:51:33;;;;;;;398.87;193.23;;;15.30;99.90;;;;;;5051079;28;20206;-55
2022/09/30 10:54:00;;;;;;;374.27;181.70;;;;;;;;;;5056391;28;20178;-55
2022/09/30 10:56:38;;;;;;;420.23;205.37;;;15.50;98.90;;;;;;5057693;28;20197;-54
2022/09/30 10:59:15;;;;;;;380.57;187.00;;;15.50;99.90;;;;;;5057776;28;20193;-54
2022/09/30 11:05:28;;;;;;;523.60;233.27;;;15.70;59.40;;;;;;5036767;27;20564;-55
2022/09/30 11:08:19;;;;;;;565.33;248.90;;;16.30;1.00;;;;;;4998346;28;20198;-55
2022/09/30 11:11:09;;;;;;;460.87;208.73;;;16.20;97.70;;;;;;4986929;28;20265;-55
2022/09/30 11:13:56;;;;;;;504.73;225.50;;;16.00;1.00;;;;;;4991742;28;20219;-55
2022/09/30 11:16:37;;;;;;;423.40;188.03;;;;;;;;;;4992712;28;20740;-55
2022/09/30 11:19:21;;;;;;;378.63;172.87;;;;;;;;;;5000735;28;20239;-55
2022/09/30 11:22:05;;;;;;;490.77;223.80;;;;;;;;;;4992659;28;20242;-55
2022/09/30 11:24:37;;;;;;;453.60;209.50;;;;;;;;;;4995750;28;20559;-56
2022/09/30 11:27:03;;;;;;;383.90;178.77;;;;;;;;;;5000068;28;20632;-55
2022/09/30 11:29:35;;;;;;;449.83;206.40;;;;;;;;;;5008228;28;20184;-56
2022/09/30 11:32:07;;;;;;;467.43;214.43;;;;;;;;;;4998613;28;21510;-56
2022/09/30 11:34:40;;;;;;;402.57;197.57;;;;;;;;;;5004271;28;20588;-56
2022/09/30 11:37:06;;;;;;;425.20;208.00;;;;;;;;;;5003706;28;20192;-57
2022/09/30 11:39:50;;;;;;;457.97;231.27;;;;;;;;;;4996233;28;20543;-55
2022/09/30 11:42:31;;;;;;;378.93;192.10;;;;;;;;;;5001237;28;20214;-56
2022/09/30 11:45:17;;;;;;;427.03;197.73;;;;;;;;;;5003211;28;20294;-55
2022/09/30 11:47:48;;;;;;;472.17;214.67;;;;;;;;;;4991144;28;20192;-56
2022/09/30 11:50:14;;;;;;;468.97;211.13;;;;;;;;;;4988535;28;21387;-55
2022/09/30 11:52:57;;;;;;;516.67;233.87;;;;;;;;;;4997500;28;20184;-57
2022/09/30 11:55:36;;;;;;;392.10;197.10;;;;;;;;;;4996400;28;20223;-55
2022/09/30 11:58:04;;;;;;;407.20;187.50;;;;;;;;;;4998550;28;20220;-55
2022/09/30 12:00:33;;;;;;;412.17;185.37;;;;;;;;;;4998288;28;20185;-57
2022/09/30 12:03:04;;;;;;;471.83;212.10;;;;;;;;;;4985500;28;20197;-56
2022/09/30 12:05:59;;;;;;;398.27;196.70;;;;;;;;;;5003106;28;20733;-55
2022/09/30 12:08:45;;;;;;;451.40;226.87;;;;;;;;;;4985422;28;20196;-55
2022/09/30 12:11:16;;;;;;;349.73;175.53;;;;;;;;;;4989789;28;20672;-56
2022/09/30 12:13:50;;;;;;;406.40;199.20;;;;;;;;;;4996456;28;23868;-56
2022/09/30 12:16:22;;;;;;;414.83;210.83;;;;;;;;;;4980548;28;20282;-56
2022/09/30 12:18:51;;;;;;;378.60;194.40;;;;;;;;;;4994289;28;20189;-56
2022/09/30 12:21:17;;;;;;;600.13;261.23;;;;;;;;;;4969372;28;20204;-56
2022/09/30 12:23:45;;;;;;;500.70;226.00;;;;;;;;;;4983328;28;20207;-56
2022/09/30 12:26:12;;;;;;;371.80;195.87;;;;;;;;;;4979840;28;20565;-56
2022/09/30 12:31:37;;;;;;;445.83;225.90;;;;;;;;;;4976515;28;21487;-56
2022/09/30 12:34:17;;;;;;;407.03;211.80;;;;;;;;;;4976408;28;20593;-56
2022/09/30 12:36:46;;;;;;;455.57;226.13;;;;;;;;;;4981426;28;20767;-57
2022/09/30 12:39:18;;;;;;;434.23;200.80;;;;;;;;;;4971451;28;20193;-57
2022/09/30 12:41:51;;;;;;;445.20;203.77;;;;;;;;;;4987557;28;20205;-54
2022/09/30 12:44:32;;;;;;;379.47;187.30;;;;;;;;;;4988992;28;20208;-56
2022/09/30 12:47:08;;;;;;;361.37;186.80;;;;;;;;;;4990474;28;20196;-56
2022/09/30 12:49:36;;;;;;;482.30;216.17;;;;;;;;;;4984853;28;20275;-56
2022/09/30 12:52:04;;;;;;;474.17;211.60;;;;;;;;;;4976739;28;20192;-56
2022/09/30 12:54:35;;;;;;;434.10;216.53;;;;;;;;;;4986584;28;20361;-56
2022/09/30 12:57:05;;;;;;;461.07;231.03;;;;;;;;;;4983296;28;20196;-56
2022/09/30 12:59:32;;;;;;;432.27;220.10;;;;;;;;;;4980238;28;20308;-56
2022/09/30 13:06:23;;;;;;;;;;;;;;;;;;5053712;27;20468;-57
2022/09/30 13:09:08;;;;;;;532.73;240.77;;;;;;;;;;5018111;28;20051;-55
2022/09/30 13:14:42;;;;;;;531.67;261.70;;;;;;;;;;5046617;27;20721;-55
2022/09/30 13:17:08;;;;;;;489.10;247.50;;;;;;;;;;5021119;28;20194;-56
2022/09/30 13:19:39;;;;;;;494.57;219.70;;;;;;;;;;5025287;28;20183;-56
2022/09/30 13:22:20;;;;;;;439.20;204.50;;;;;;;;;;5029074;28;20192;-56
2022/09/30 13:25:04;;;;;;;366.80;186.57;;;;;;;;;;5031033;28;20623;-56
2022/09/30 13:27:37;;;;;;;437.67;203.30;;;;;;;;;;5032419;28;20189;-56
2022/09/30 13:30:15;;;;;;;466.80;213.50;;;;;;;;;;5010986;28;20187;-57
2022/09/30 13:32:44;;;;;;;446.63;209.83;;;;;;;;;;5010554;28;20222;-56